Time;durP1;ratioP1;P1;durP2;ratioP2;P2;SDS_P1;SDS_P2;PMS_P1;PMS_P2;Temp;Humidity;BMP_temperature;BMP_pressure;BME280_temperature;BME280_humidity;BME280_pressure;Samples;Min_cycle;Max_cycle;Signal;HPM_P1;HPM_P2
2023/06/26 00:01:21;;;;;;;7.35;2.75;;;;;;;;;;5086309;28;20870;-67
2023/06/26 00:03:47;;;;;;;5.57;2.63;;;;;;;;;;5068437;28;20066;-67
2023/06/26 00:06:14;;;;;;;5.75;2.85;;;;;;;;;;5085621;28;20137;-67
2023/06/26 00:08:40;;;;;;;5.10;2.53;;;;;;;;;;5076601;28;20034;-68
2023/06/26 00:11:05;;;;;;;5.68;2.90;;;;;;;;;;5081154;28;20028;-67
2023/06/26 00:13:30;;;;;;;4.97;2.70;;;;;;;;;;5068516;28;20011;-67
2023/06/26 00:16:00;;;;;;;5.40;2.97;;;;;;;;;;5086187;28;20066;-67
2023/06/26 00:18:30;;;;;;;5.45;2.72;;;;;;;;;;5085571;28;20386;-68
2023/06/26 00:20:55;;;;;;;7.37;2.70;;;;;;;;;;5084185;28;20107;-67
2023/06/26 00:23:23;;;;;;;5.00;2.60;;;;;;;;;;5072074;28;21089;-67
2023/06/26 00:25:48;;;;;;;7.88;3.05;;;;;;;;;;5092841;28;20032;-67
2023/06/26 00:28:19;;;;;;;5.23;2.47;;;;;;;;;;5083991;28;20730;-67
2023/06/26 00:30:44;;;;;;;4.90;2.78;;;;;;;;;;5087744;28;20012;-68
2023/06/26 00:33:09;;;;;;;5.27;2.90;;;;;;;;;;5067757;28;20023;-68
2023/06/26 00:35:35;;;;;;;4.90;2.47;;;;;;;;;;5089062;28;20281;-68
2023/06/26 00:38:00;;;;;;;4.80;2.67;;;;;;;;;;5088400;28;20273;-68
2023/06/26 00:40:26;;;;;;;6.35;3.20;;;;;;;;;;5077758;28;21335;-68
2023/06/26 00:42:51;;;;;;;6.93;2.78;;;;;;;;;;5088767;28;20484;-68
2023/06/26 00:45:21;;;;;;;5.87;3.07;;;;;;;;;;5081895;28;20034;-68
2023/06/26 00:47:47;;;;;;;4.80;2.67;;;;;;;;;;5070706;28;20050;-68
2023/06/26 00:50:15;;;;;;;5.50;2.70;;;;;;;;;;5082326;28;20008;-69
2023/06/26 00:52:41;;;;;;;5.63;3.00;;;;;;;;;;5090200;28;20015;-67
2023/06/26 00:55:07;;;;;;;6.07;2.87;;;;;;;;;;5075120;28;20047;-67
2023/06/26 00:57:34;;;;;;;5.82;2.35;;;;;;;;;;5084715;28;20265;-68
2023/06/26 01:00:01;;;;;;;5.90;2.90;;;;;;;;;;5072095;28;20019;-68
2023/06/26 01:02:33;;;;;;;5.55;2.80;;;;;;;;;;5084526;28;20125;-68
2023/06/26 01:04:59;;;;;;;5.25;2.78;;;;;;;;;;5074586;28;20020;-67
2023/06/26 01:07:24;;;;;;;6.13;3.20;;;;;;;;;;5062395;28;20461;-67
2023/06/26 01:09:52;;;;;;;4.97;2.65;;;;;;;;;;5088946;28;20020;-67
2023/06/26 01:12:17;;;;;;;4.95;2.85;;;;;;;;;;5092480;28;20080;-67
2023/06/26 01:14:42;;;;;;;6.33;3.10;;;;;;;;;;5071729;28;20027;-68
2023/06/26 01:17:08;;;;;;;5.57;2.80;;;;;;;;;;5089204;28;20316;-66
2023/06/26 01:19:33;;;;;;;5.95;2.90;;;;;;;;;;5084598;27;20277;-67
2023/06/26 01:22:15;;;;;;;5.50;2.70;;;;;;;;;;5093561;27;20019;-68
2023/06/26 01:24:43;;;;;;;4.97;2.65;;;;;;;;;;5089358;28;20020;-68
2023/06/26 01:27:09;;;;;;;6.77;2.80;;;;;;;;;;5076008;28;20024;-68
2023/06/26 01:29:35;;;;;;;5.82;2.58;;;;;;;;;;5093102;28;20228;-67
2023/06/26 01:32:00;;;;;;;5.38;2.80;;;;;;;;;;5072832;28;20088;-67
2023/06/26 01:34:26;;;;;;;5.75;2.60;;;;;;;;;;5078972;28;20019;-68
2023/06/26 01:36:53;;;;;;;6.53;2.90;;;;;;;;;;5089406;27;20020;-68
2023/06/26 01:39:21;;;;;;;5.60;3.08;;;;;;;;;;5092127;27;20120;-68
2023/06/26 01:41:48;;;;;;;5.32;2.75;;;;;;;;;;5095767;28;20031;-68
2023/06/26 01:44:29;;;;;;;8.82;3.30;;;;;;;;;;5076323;28;20036;-68
2023/06/26 01:46:55;;;;;;;5.90;2.72;;;;;;;;;;5068044;28;20023;-68
2023/06/26 01:49:27;;;;;;;5.03;3.00;;;;;;;;;;5092912;27;20026;-68
2023/06/26 01:52:14;;;;;;;6.43;3.10;;;;;;;;;;5091899;28;20028;-68
2023/06/26 01:54:46;;;;;;;5.40;2.50;;;;;;;;;;5086528;28;20103;-67
2023/06/26 01:57:12;;;;;;;6.32;3.00;;;;;;;;;;5086354;28;20141;-66
2023/06/26 01:59:38;;;;;;;8.30;2.72;;;;;;;;;;5084944;27;20784;-67
2023/06/26 02:02:06;;;;;;;6.40;3.00;;;;;;;;;;5087035;28;20119;-68
2023/06/26 02:04:32;;;;;;;5.70;2.83;;;;;;;;;;5092012;28;20043;-68
2023/06/26 02:06:57;;;;;;;5.23;2.80;;;;;;;;;;5085528;27;20101;-67
2023/06/26 02:09:22;;;;;;;5.33;2.70;;;;;;;;;;5072452;28;20027;-67
2023/06/26 02:11:49;;;;;;;6.17;3.00;;;;;;;;;;5087429;27;20054;-67
2023/06/26 02:14:15;;;;;;;6.75;2.90;;;;;;;;;;5088849;28;20272;-67
2023/06/26 02:16:40;;;;;;;5.80;3.00;;;;;;;;;;5077417;28;20048;-68
2023/06/26 02:19:05;;;;;;;6.68;3.05;;;;;;;;;;5072045;28;20114;-67
2023/06/26 02:21:33;;;;;;;6.20;2.93;;;;;;;;;;5092601;28;20024;-67
2023/06/26 02:23:58;;;;;;;5.40;3.15;;;;;;;;;;5085702;28;20269;-67
2023/06/26 02:26:24;;;;;;;5.07;2.63;;;;;;;;;;5075298;28;20030;-66
2023/06/26 02:28:52;;;;;;;5.90;3.05;;;;;;;;;;5086143;28;20031;-67
2023/06/26 02:31:18;;;;;;;5.85;2.70;;;;;;;;;;5085117;28;20012;-67
2023/06/26 02:33:45;;;;;;;5.35;3.00;;;;;;;;;;5075788;28;20175;-67
2023/06/26 02:36:10;;;;;;;5.75;2.75;;;;;;;;;;5085291;28;20020;-67
2023/06/26 02:38:36;;;;;;;5.37;2.77;;;;;;;;;;5076412;28;20016;-67
2023/06/26 02:41:01;;;;;;;5.38;2.95;;;;;;;;;;5075915;28;20268;-67
2023/06/26 02:43:26;;;;;;;5.47;2.72;;;;;;;;;;5075404;28;20016;-67
2023/06/26 02:45:52;;;;;;;5.00;2.70;;;;;;;;;;5086745;28;20023;-67
2023/06/26 02:48:17;;;;;;;5.33;2.80;;;;;;;;;;5076750;28;20085;-67
2023/06/26 02:50:45;;;;;;;5.17;2.67;;;;;;;;;;5069062;28;20024;-69
2023/06/26 02:53:10;;;;;;;5.73;2.77;;;;;;;;;;5089770;27;20047;-68
2023/06/26 02:55:36;;;;;;;8.20;3.03;;;;;;;;;;5084185;27;21425;-68
2023/06/26 02:58:03;;;;;;;6.17;3.00;;;;;;;;;;5091828;27;20011;-67
2023/06/26 03:00:31;;;;;;;5.65;2.88;;;;;;;;;;5066380;28;20071;-67
2023/06/26 03:02:57;;;;;;;5.40;3.00;;;;;;;;;;5084020;28;20077;-67
2023/06/26 03:05:23;;;;;;;5.30;2.63;;;;;;;;;;5085858;28;20412;-67
2023/06/26 03:07:51;;;;;;;5.70;3.17;;;;;;;;;;5069661;28;20128;-67
2023/06/26 03:10:16;;;;;;;5.53;2.92;;;;;;;;;;5066045;28;20028;-68
2023/06/26 03:12:41;;;;;;;5.67;3.20;;;;;;;;;;5083437;28;20030;-67
2023/06/26 03:15:08;;;;;;;6.00;3.10;;;;;;;;;;5085614;27;20027;-67
2023/06/26 03:17:33;;;;;;;5.22;3.22;;;;;;;;;;5067947;28;20019;-67
2023/06/26 03:19:59;;;;;;;5.78;3.05;;;;;;;;;;5087065;27;20028;-67
2023/06/26 03:22:29;;;;;;;6.13;3.10;;;;;;;;;;5081292;28;20058;-67
2023/06/26 03:24:55;;;;;;;6.15;3.47;;;;;;;;;;5088996;28;20020;-67
2023/06/26 03:27:20;;;;;;;7.78;3.25;;;;;;;;;;5083528;28;20019;-67
2023/06/26 03:29:46;;;;;;;6.25;3.30;;;;;;;;;;5091972;28;20035;-66
2023/06/26 03:32:14;;;;;;;5.75;3.05;;;;;;;;;;5066725;27;20119;-67
2023/06/26 03:34:39;;;;;;;5.97;3.13;;;;;;;;;;5084820;28;20092;-67
2023/06/26 03:37:04;;;;;;;5.23;3.10;;;;;;;;;;5078548;28;20027;-67
2023/06/26 03:39:30;;;;;;;7.32;3.30;;;;;;;;;;5064733;28;20030;-67
2023/06/26 03:42:00;;;;;;;5.23;3.03;;;;;;;;;;5091278;28;20845;-67
2023/06/26 03:44:28;;;;;;;5.60;2.97;;;;;;;;;;5086196;28;20019;-67
2023/06/26 03:46:54;;;;;;;5.57;3.28;;;;;;;;;;5087866;28;20030;-67
2023/06/26 03:49:19;;;;;;;6.28;3.40;;;;;;;;;;5076169;28;20028;-67
2023/06/26 03:51:45;;;;;;;5.57;3.03;;;;;;;;;;5086452;28;20470;-67
2023/06/26 03:54:12;;;;;;;6.18;3.03;;;;;;;;;;5071686;28;20927;-67
2023/06/26 03:56:40;;;;;;;6.03;3.38;;;;;;;;;;5065097;28;20024;-67
2023/06/26 03:59:05;;;;;;;6.18;3.38;;;;;;;;;;5089991;28;20111;-67
2023/06/26 04:01:30;;;;;;;5.40;3.10;;;;;;;;;;5082012;28;20020;-67
2023/06/26 04:03:56;;;;;;;5.77;3.23;;;;;;;;;;5086660;28;20036;-67
2023/06/26 04:06:21;;;;;;;5.30;3.03;;;;;;;;;;5072208;28;20371;-67
2023/06/26 04:08:51;;;;;;;6.23;3.20;;;;;;;;;;5068728;28;20016;-66
2023/06/26 04:11:18;;;;;;;7.57;3.35;;;;;;;;;;5086106;28;20246;-67
2023/06/26 04:13:44;;;;;;;6.05;3.50;;;;;;;;;;5074863;28;20028;-67
2023/06/26 04:16:11;;;;;;;5.50;3.13;;;;;;;;;;5086316;28;20410;-67
2023/06/26 04:18:37;;;;;;;5.78;2.85;;;;;;;;;;5084250;28;20285;-65
2023/06/26 04:21:11;;;;;;;5.22;3.05;;;;;;;;;;5089432;28;20019;-67
2023/06/26 04:23:36;;;;;;;5.72;3.15;;;;;;;;;;5087684;28;20581;-67
2023/06/26 04:26:02;;;;;;;5.85;3.22;;;;;;;;;;5070916;28;20044;-67
2023/06/26 04:28:30;;;;;;;6.20;3.50;;;;;;;;;;5084168;28;20073;-67
2023/06/26 04:30:55;;;;;;;7.05;3.00;;;;;;;;;;5088225;28;20019;-67
2023/06/26 04:33:20;;;;;;;5.38;3.38;;;;;;;;;;5082470;28;20030;-67
2023/06/26 04:35:48;;;;;;;5.28;3.00;;;;;;;;;;5082645;28;20020;-67
2023/06/26 04:38:14;;;;;;;6.88;3.40;;;;;;;;;;5078316;28;20019;-67
2023/06/26 04:40:41;;;;;;;5.85;3.38;;;;;;;;;;5084433;28;20020;-67
2023/06/26 04:43:07;;;;;;;5.50;3.05;;;;;;;;;;5082217;28;20099;-67
2023/06/26 04:45:32;;;;;;;5.70;3.20;;;;;;;;;;5074532;28;20082;-67
2023/06/26 04:47:57;;;;;;;6.37;3.17;;;;;;;;;;5086750;27;20263;-67
2023/06/26 04:50:23;;;;;;;6.38;3.25;;;;;;;;;;5093300;27;20019;-67
2023/06/26 04:52:48;;;;;;;5.75;3.20;;;;;;;;;;5069299;28;20016;-65
2023/06/26 04:55:15;;;;;;;7.47;3.07;;;;;;;;;;5073721;28;20118;-67
2023/06/26 04:57:41;;;;;;;5.60;2.90;;;;;;;;;;5090489;28;20285;-67
2023/06/26 05:00:10;;;;;;;6.87;3.53;;;;;;;;;;5075414;27;20624;-67
2023/06/26 05:02:36;;;;;;;5.90;3.13;;;;;;;;;;5084534;27;20015;-67
2023/06/26 05:05:01;;;;;;;7.30;3.30;;;;;;;;;;5072946;28;20023;-67
2023/06/26 05:07:26;;;;;;;7.23;3.23;;;;;;;;;;5086763;27;20708;-67
2023/06/26 05:09:52;;;;;;;6.63;3.27;;;;;;;;;;5087540;28;20278;-67
2023/06/26 05:12:19;;;;;;;5.93;3.40;;;;;;;;;;5093712;27;21172;-67
2023/06/26 05:14:46;;;;;;;5.15;3.22;;;;;;;;;;5084724;28;20032;-67
2023/06/26 05:17:11;;;;;;;6.80;3.28;;;;;;;;;;5093903;28;20035;-67
2023/06/26 05:19:36;;;;;;;5.43;3.10;;;;;;;;;;5066319;28;20583;-67
2023/06/26 05:22:06;;;;;;;7.30;3.10;;;;;;;;;;5092120;27;20031;-67
2023/06/26 05:24:35;;;;;;;6.38;3.30;;;;;;;;;;5074783;28;20105;-67
2023/06/26 05:27:00;;;;;;;6.57;3.60;;;;;;;;;;5084704;28;20464;-67
2023/06/26 05:29:25;;;;;;;5.95;3.17;;;;;;;;;;5075010;28;20732;-67
2023/06/26 05:31:51;;;;;;;6.40;3.55;;;;;;;;;;5086030;28;20047;-67
2023/06/26 05:34:17;;;;;;;6.90;3.03;;;;;;;;;;5090085;27;20816;-67
2023/06/26 05:36:45;;;;;;;6.10;3.70;;;;;;;;;;5076082;28;20759;-67
2023/06/26 05:39:10;;;;;;;6.70;3.03;;;;;;;;;;5080074;27;20023;-67
2023/06/26 05:41:35;;;;;;;6.00;3.35;;;;;;;;;;5078147;28;20052;-67
2023/06/26 05:44:00;;;;;;;6.22;3.45;;;;;;;;;;5069256;28;20454;-67
2023/06/26 05:46:26;;;;;;;6.90;3.63;;;;;;;;;;5092041;27;20023;-68
2023/06/26 05:48:56;;;;;;;6.75;3.30;;;;;;;;;;5065134;28;20028;-67
2023/06/26 05:51:21;;;;;;;5.05;2.75;;;;;;;;;;5067690;28;20449;-67
2023/06/26 05:53:47;;;;;;;5.10;3.22;;;;;;;;;;5083838;28;20111;-66
2023/06/26 05:56:12;;;;;;;5.80;3.35;;;;;;;;;;5067599;28;21064;-68
2023/06/26 05:58:38;;;;;;;5.97;3.45;;;;;;;;;;5090724;28;20069;-67
2023/06/26 06:01:03;;;;;;;5.47;3.10;;;;;;;;;;5084941;28;20026;-67
2023/06/26 06:03:28;;;;;;;6.70;3.23;;;;;;;;;;5073635;28;20096;-68
2023/06/26 06:05:53;;;;;;;5.70;3.20;;;;;;;;;;5066415;28;20034;-67
2023/06/26 06:08:19;;;;;;;6.22;3.30;;;;;;;;;;5089225;28;20738;-67
2023/06/26 06:10:44;;;;;;;5.70;3.50;;;;;;;;;;5086098;27;20044;-67
2023/06/26 06:13:09;;;;;;;6.65;3.50;;;;;;;;;;5061299;28;21191;-67
2023/06/26 06:15:34;;;;;;;7.00;3.10;;;;;;;;;;5071213;28;20047;-66
2023/06/26 06:18:00;;;;;;;6.20;3.17;;;;;;;;;;5086160;27;20024;-68
2023/06/26 06:20:27;;;;;;;6.53;3.67;;;;;;;;;;5074501;28;20032;-67
2023/06/26 06:22:55;;;;;;;6.15;3.53;;;;;;;;;;5085727;28;20261;-69
2023/06/26 06:25:20;;;;;;;6.38;3.40;;;;;;;;;;5089299;28;20027;-67
2023/06/26 06:27:45;;;;;;;6.45;3.60;;;;;;;;;;5072336;28;20044;-66
2023/06/26 06:30:11;;;;;;;7.45;3.40;;;;;;;;;;5091973;28;20359;-68
2023/06/26 06:32:36;;;;;;;5.90;3.40;;;;;;;;;;5087933;28;20490;-68
2023/06/26 06:35:08;;;;;;;5.70;3.60;;;;;;;;;;5087153;28;20107;-68
2023/06/26 06:37:36;;;;;;;6.03;3.03;;;;;;;;;;5076110;28;20572;-69
2023/06/26 06:40:01;;;;;;;5.35;3.22;;;;;;;;;;5070051;28;20080;-68
2023/06/26 06:42:29;;;;;;;5.77;3.50;;;;;;;;;;5092992;28;20016;-68
2023/06/26 06:44:54;;;;;;;6.10;3.38;;;;;;;;;;5085471;27;20328;-69
2023/06/26 06:47:19;;;;;;;5.23;3.13;;;;;;;;;;5091540;27;20548;-68
2023/06/26 06:49:46;;;;;;;6.17;3.60;;;;;;;;;;5090036;28;20027;-69
2023/06/26 06:52:12;;;;;;;5.43;3.13;;;;;;;;;;5085395;28;20252;-68
2023/06/26 06:55:05;;;;;;;6.10;3.23;;;;;;;;;;5088745;28;20113;-69
2023/06/26 06:57:30;;;;;;;6.07;3.05;;;;;;;;;;5086985;27;20470;-69
2023/06/26 06:59:55;;;;;;;5.47;3.05;;;;;;;;;;5094398;28;20030;-68
2023/06/26 07:02:20;;;;;;;5.83;3.20;;;;;;;;;;5085463;28;20028;-69
2023/06/26 07:04:46;;;;;;;6.80;3.50;;;;;;;;;;5072654;28;20635;-68
2023/06/26 07:07:13;;;;;;;7.83;3.90;;;;;;;;;;5071452;28;20015;-68
2023/06/26 07:09:41;;;;;;;7.50;3.78;;;;;;;;;;5086291;27;20260;-68
2023/06/26 07:12:10;;;;;;;7.93;3.50;;;;;;;;;;5088742;28;20076;-68
2023/06/26 07:14:38;;;;;;;7.25;3.42;;;;;;;;;;5087154;27;20376;-69
2023/06/26 07:17:04;;;;;;;5.43;2.80;;;;;;;;;;5074034;28;20055;-70
2023/06/26 07:19:29;;;;;;;7.17;3.33;;;;;;;;;;5071442;28;20028;-69
2023/06/26 07:21:59;;;;;;;6.68;3.13;;;;;;;;;;5066558;28;20032;-69
2023/06/26 07:24:25;;;;;;;6.55;3.40;;;;;;;;;;5086182;28;20052;-69
2023/06/26 07:26:50;;;;;;;7.40;3.30;;;;;;;;;;5083707;28;20147;-69
2023/06/26 07:29:15;;;;;;;6.33;3.57;;;;;;;;;;5069705;28;20059;-69
2023/06/26 07:31:45;;;;;;;6.30;3.87;;;;;;;;;;5087182;27;20563;-69
2023/06/26 07:34:12;;;;;;;8.45;3.55;;;;;;;;;;5092490;27;20261;-69
2023/06/26 07:36:37;;;;;;;8.52;3.60;;;;;;;;;;5087090;27;20035;-68
2023/06/26 07:39:03;;;;;;;6.37;3.23;;;;;;;;;;5075776;28;20015;-69
2023/06/26 07:41:30;;;;;;;6.97;2.90;;;;;;;;;;5087684;28;20608;-69
2023/06/26 07:43:56;;;;;;;5.97;3.10;;;;;;;;;;5085530;28;20812;-69
2023/06/26 07:46:22;;;;;;;5.95;3.20;;;;;;;;;;5074596;28;20067;-69
2023/06/26 07:48:47;;;;;;;9.63;3.37;;;;;;;;;;5069748;28;20528;-70
2023/06/26 07:51:12;;;;;;;5.95;3.35;;;;;;;;;;5087201;28;20817;-69
2023/06/26 07:53:37;;;;;;;7.33;3.17;;;;;;;;;;5087562;28;20095;-69
2023/06/26 07:56:05;;;;;;;7.30;3.10;;;;;;;;;;5087595;28;20034;-69
2023/06/26 07:58:30;;;;;;;5.57;2.90;;;;;;;;;;5088524;28;20471;-67
2023/06/26 08:00:56;;;;;;;6.13;3.55;;;;;;;;;;5086587;28;20023;-68
2023/06/26 08:03:21;;;;;;;7.47;3.30;;;;;;;;;;5069441;28;20110;-69
2023/06/26 08:05:46;;;;;;;8.47;3.30;;;;;;;;;;5088229;28;20790;-67
2023/06/26 08:08:11;;;;;;;7.53;3.13;;;;;;;;;;5070479;28;20304;-69
2023/06/26 08:10:37;;;;;;;7.37;3.17;;;;;;;;;;5070960;28;20274;-69
2023/06/26 08:13:02;;;;;;;5.47;2.77;;;;;;;;;;5080759;28;20619;-69
2023/06/26 08:15:27;;;;;;;5.53;3.20;;;;;;;;;;5070321;28;20359;-67
2023/06/26 08:17:55;;;;;;;5.33;3.00;;;;;;;;;;5089995;28;20035;-67
2023/06/26 08:20:22;;;;;;;5.70;3.03;;;;;;;;;;5090400;28;20960;-68
2023/06/26 08:22:49;;;;;;;6.18;2.90;;;;;;;;;;5089551;28;20034;-66
2023/06/26 08:25:14;;;;;;;5.65;3.35;;;;;;;;;;5090750;27;20043;-68
2023/06/26 08:27:39;;;;;;;6.10;3.23;;;;;;;;;;5078814;28;20108;-69
2023/06/26 08:30:05;;;;;;;5.83;2.77;;;;;;;;;;5075421;28;20024;-67
2023/06/26 08:32:30;;;;;;;8.02;3.22;;;;;;;;;;5084292;28;20024;-68
2023/06/26 08:34:58;;;;;;;4.97;2.90;;;;;;;;;;5089994;28;20035;-68
2023/06/26 08:37:23;;;;;;;7.38;3.88;;;;;;;;;;5081029;27;20565;-68
2023/06/26 08:39:51;;;;;;;5.20;2.80;;;;;;;;;;5073063;28;20046;-68
2023/06/26 08:42:16;;;;;;;5.38;3.30;;;;;;;;;;5078354;28;20096;-67
2023/06/26 08:44:41;;;;;;;6.38;3.10;;;;;;;;;;5073049;28;20031;-68
2023/06/26 08:47:11;;;;;;;6.07;3.35;;;;;;;;;;5096011;27;20471;-67
2023/06/26 08:49:36;;;;;;;;;;;;;;;;;;5069223;28;20034;-69
2023/06/26 08:52:22;;;;;;;5.80;3.20;;;;;;;;;;5089777;27;19903;-67
2023/06/26 08:54:52;;;;;;;6.20;3.75;;;;;;;;;;5089953;28;20023;-67
2023/06/26 08:57:18;;;;;;;6.85;3.13;;;;;;;;;;5089309;27;20510;-67
2023/06/26 08:59:47;;;;;;;6.60;3.53;;;;;;;;;;5078743;28;20031;-68
2023/06/26 09:02:15;;;;;;;7.10;3.60;;;;;;;;;;5075835;28;20051;-68
2023/06/26 09:04:40;;;;;;;5.63;2.75;;;;;;;;;;5076078;28;20019;-67
2023/06/26 09:07:08;;;;;;;5.88;3.10;;;;;;;;;;5085987;28;20031;-66
2023/06/26 09:09:36;;;;;;;5.88;3.10;;;;;;;;;;5088071;28;20120;-69
2023/06/26 09:12:03;;;;;;;6.72;3.00;;;;;;;;;;5088806;28;20034;-69
2023/06/26 09:14:29;;;;;;;6.60;3.47;;;;;;;;;;5076859;28;20030;-69
2023/06/26 09:16:54;;;;;;;7.93;3.03;;;;;;;;;;5076613;27;20048;-68
2023/06/26 09:19:19;;;;;;;5.70;3.07;;;;;;;;;;5086394;28;20024;-68
2023/06/26 09:21:48;;;;;;;5.77;3.00;;;;;;;;;;5089829;27;20031;-69
2023/06/26 09:24:16;;;;;;;5.78;3.10;;;;;;;;;;5071988;28;20558;-69
2023/06/26 09:26:41;;;;;;;5.95;2.83;;;;;;;;;;5092868;27;20052;-68
2023/06/26 09:29:07;;;;;;;6.07;3.23;;;;;;;;;;5074467;28;20044;-69
2023/06/26 09:31:33;;;;;;;6.10;3.42;;;;;;;;;;5086499;28;20858;-69
2023/06/26 09:34:02;;;;;;;6.20;3.40;;;;;;;;;;5071780;28;20031;-66
2023/06/26 09:36:33;;;;;;;8.70;3.50;;;;;;;;;;5086892;28;21180;-68
2023/06/26 09:39:14;;;;;;;5.68;3.08;;;;;;;;;;5092027;27;20055;-68
2023/06/26 09:41:45;;;;;;;6.55;3.50;;;;;;;;;;5068710;28;20024;-68
2023/06/26 09:44:13;;;;;;;7.78;3.42;;;;;;;;;;5073075;28;20019;-67
2023/06/26 09:46:40;;;;;;;5.53;3.13;;;;;;;;;;5089282;27;20031;-67
2023/06/26 09:49:07;;;;;;;6.78;3.20;;;;;;;;;;5089579;27;20192;-67
2023/06/26 09:51:39;;;;;;;5.65;3.28;;;;;;;;;;5078675;28;20184;-68
2023/06/26 09:54:05;;;;;;;5.30;3.22;;;;;;;;;;5087327;27;20016;-68
2023/06/26 09:56:30;;;;;;;6.20;3.58;;;;;;;;;;5072750;28;20058;-68
2023/06/26 09:58:57;;;;;;;6.85;3.40;;;;;;;;;;5074061;28;20688;-68
2023/06/26 10:01:25;;;;;;;6.45;3.38;;;;;;;;;;5087810;28;20024;-68
2023/06/26 10:03:53;;;;;;;5.50;3.37;;;;;;;;;;5085760;28;20027;-67
2023/06/26 10:06:19;;;;;;;7.05;3.45;;;;;;;;;;5087375;27;21013;-67
2023/06/26 10:08:48;;;;;;;5.90;3.45;;;;;;;;;;5076829;28;20458;-68
2023/06/26 10:11:18;;;;;;;8.43;3.58;;;;;;;;;;5090080;28;20019;-67
2023/06/26 10:13:48;;;;;;;5.70;3.33;;;;;;;;;;5078141;28;20027;-68
2023/06/26 10:16:18;;;;;;;7.30;3.63;;;;;;;;;;5080057;28;20040;-67
2023/06/26 10:18:45;;;;;;;6.30;3.53;;;;;;;;;;5091780;27;20256;-68
2023/06/26 10:21:12;;;;;;;8.02;3.50;;;;;;;;;;5087818;28;20030;-67
2023/06/26 10:23:38;;;;;;;7.40;3.40;;;;;;;;;;5083824;27;20020;-68
2023/06/26 10:26:07;;;;;;;7.80;3.88;;;;;;;;;;5074539;28;20541;-66
2023/06/26 10:28:32;;;;;;;7.05;3.50;;;;;;;;;;5066586;28;20031;-65
2023/06/26 10:30:58;;;;;;;5.70;3.33;;;;;;;;;;5075388;28;20747;-66
2023/06/26 10:33:24;;;;;;;6.05;3.30;;;;;;;;;;5084828;28;20015;-67
2023/06/26 10:35:49;;;;;;;4.90;3.05;;;;;;;;;;5065352;28;20031;-65
2023/06/26 10:38:14;;;;;;;6.47;3.10;;;;;;;;;;5072748;28;20028;-64
2023/06/26 10:40:44;;;;;;;8.87;3.60;;;;;;;;;;5092495;27;20020;-64
2023/06/26 10:43:11;;;;;;;5.38;3.20;;;;;;;;;;5067215;28;20108;-65
2023/06/26 10:45:37;;;;;;;6.80;3.60;;;;;;;;;;5074967;28;20019;-65
2023/06/26 10:48:03;;;;;;;6.75;3.38;;;;;;;;;;5086925;28;20784;-66
2023/06/26 10:50:35;;;;;;;7.35;3.53;;;;;;;;;;5089619;27;20097;-66
2023/06/26 10:53:20;;;;;;;5.70;3.17;;;;;;;;;;5071058;28;20443;-63
2023/06/26 10:56:06;;;;;;;5.97;3.40;;;;;;;;;;5086512;27;20030;-66
2023/06/26 10:58:34;;;;;;;6.18;3.42;;;;;;;;;;5073835;28;20051;-65
2023/06/26 11:01:17;;;;;;;7.13;3.38;;;;;;;;;;5078865;28;20690;-65
2023/06/26 11:03:58;;;;;;;6.05;3.40;;;;;;;;;;5086454;28;20028;-65
2023/06/26 11:06:23;;;;;;;6.38;3.30;;;;;;;;;;5078620;28;20106;-64
2023/06/26 11:09:15;;;;;;;6.10;3.30;;;;;;;;;;5066489;28;20023;-65
2023/06/26 11:11:58;;;;;;;5.50;3.25;;;;;;;;;;5087150;27;20772;-65
2023/06/26 11:14:24;;;;;;;7.03;3.50;;;;;;;;;;5066910;28;20478;-64
2023/06/26 11:16:49;;;;;;;6.65;3.58;;;;;;;;;;5085980;28;20044;-64
2023/06/26 11:19:16;;;;;;;5.88;3.55;;;;;;;;;;5089762;28;20028;-65
2023/06/26 11:21:41;;;;;;;5.32;3.45;;;;;;;;;;5084198;28;20027;-65
2023/06/26 11:24:08;;;;;;;7.53;3.50;;;;;;;;;;5089903;28;20487;-65
2023/06/26 11:26:44;;;;;;;6.60;3.00;;;;;;;;;;5084546;27;20273;-65
2023/06/26 11:29:12;;;;;;;6.45;3.40;;;;;;;;;;5092613;27;20170;-65
2023/06/26 11:31:38;;;;;;;5.63;3.35;;;;;;;;;;5081294;28;20637;-64
2023/06/26 11:34:05;;;;;;;6.53;3.58;;;;;;;;;;5070540;28;20087;-65
2023/06/26 11:36:30;;;;;;;6.28;3.38;;;;;;;;;;5078528;28;20458;-63
2023/06/26 11:38:56;;;;;;;8.27;3.70;;;;;;;;;;5070069;28;20065;-64
2023/06/26 11:41:22;;;;;;;7.47;3.70;;;;;;;;;;5073174;28;20034;-64
2023/06/26 11:43:48;;;;;;;5.88;3.60;;;;;;;;;;5063478;28;20398;-64
2023/06/26 11:46:15;;;;;;;7.82;3.55;;;;;;;;;;5090319;28;20077;-64
2023/06/26 11:48:43;;;;;;;6.25;3.50;;;;;;;;;;5083365;28;20024;-64
2023/06/26 11:51:09;;;;;;;7.60;3.50;;;;;;;;;;5091243;28;20023;-65
2023/06/26 11:53:39;;;;;;;6.55;3.42;;;;;;;;;;5071292;28;20020;-64
2023/06/26 11:56:15;;;;;;;7.20;3.67;;;;;;;;;;5066136;28;20016;-65
2023/06/26 11:58:57;;;;;;;6.47;3.45;;;;;;;;;;5075071;28;20027;-64
2023/06/26 12:01:22;;;;;;;9.23;3.85;;;;;;;;;;5072887;28;20118;-68
2023/06/26 12:03:48;;;;;;;7.18;3.80;;;;;;;;;;5072358;28;20016;-64
2023/06/26 12:06:16;;;;;;;7.85;3.50;;;;;;;;;;5086754;28;20050;-64
2023/06/26 12:08:42;;;;;;;6.57;3.90;;;;;;;;;;5069991;28;20031;-64
2023/06/26 12:11:09;;;;;;;8.05;3.95;;;;;;;;;;5070171;28;20102;-64
2023/06/26 12:13:35;;;;;;;7.47;3.90;;;;;;;;;;5075509;28;20018;-64
2023/06/26 12:16:00;;;;;;;6.07;3.47;;;;;;;;;;5088157;28;20525;-66
2023/06/26 12:18:26;;;;;;;6.97;4.00;;;;;;;;;;5082940;28;20024;-63
2023/06/26 12:20:51;;;;;;;6.55;3.70;;;;;;;;;;5070038;28;20250;-65
2023/06/26 12:23:17;;;;;;;5.85;3.85;;;;;;;;;;5070960;28;20023;-65
2023/06/26 12:25:42;;;;;;;6.87;3.93;;;;;;;;;;5073626;28;20092;-65
2023/06/26 12:28:17;;;;;;;7.80;3.63;;;;;;;;;;5067480;28;20161;-64
2023/06/26 12:30:45;;;;;;;7.75;4.00;;;;;;;;;;5068322;28;20030;-64
2023/06/26 12:33:14;;;;;;;7.53;3.72;;;;;;;;;;5085975;28;20051;-63
2023/06/26 12:35:39;;;;;;;7.93;3.72;;;;;;;;;;5088083;28;20027;-64
2023/06/26 12:38:09;;;;;;;6.53;3.93;;;;;;;;;;5085223;28;20019;-67
2023/06/26 12:40:34;;;;;;;6.90;3.67;;;;;;;;;;5070313;28;20322;-63
2023/06/26 12:42:59;;;;;;;6.60;3.80;;;;;;;;;;5070549;28;20059;-64
2023/06/26 12:45:27;;;;;;;9.13;3.77;;;;;;;;;;5070942;28;20307;-63
2023/06/26 12:47:52;;;;;;;6.40;3.80;;;;;;;;;;5072513;28;20034;-65
2023/06/26 12:50:18;;;;;;;7.47;3.70;;;;;;;;;;5070725;28;20469;-66
2023/06/26 12:52:43;;;;;;;6.75;3.90;;;;;;;;;;5072324;28;20608;-67
2023/06/26 12:55:08;;;;;;;6.80;4.03;;;;;;;;;;5070072;28;21608;-65
2023/06/26 12:57:34;;;;;;;7.43;3.92;;;;;;;;;;5066972;28;20037;-66
2023/06/26 13:00:02;;;;;;;6.93;3.75;;;;;;;;;;5088340;28;20020;-65
2023/06/26 13:02:27;;;;;;;9.20;4.20;;;;;;;;;;5063220;28;20027;-65
2023/06/26 13:04:53;;;;;;;8.77;4.20;;;;;;;;;;5065747;28;20665;-69
2023/06/26 13:07:18;;;;;;;6.57;3.87;;;;;;;;;;5067781;27;20092;-68
2023/06/26 13:09:45;;;;;;;6.35;3.95;;;;;;;;;;5080078;28;21509;-68
2023/06/26 13:12:10;;;;;;;5.30;3.53;;;;;;;;;;5066464;28;20020;-68
2023/06/26 13:14:38;;;;;;;7.67;4.03;;;;;;;;;;5062228;27;20027;-68
2023/06/26 13:17:03;;;;;;;7.57;3.92;;;;;;;;;;5064575;28;20059;-68
2023/06/26 13:19:29;;;;;;;8.40;3.63;;;;;;;;;;5076704;28;20024;-69
2023/06/26 13:21:54;;;;;;;7.73;3.80;;;;;;;;;;5080678;27;20020;-68
2023/06/26 13:24:19;;;;;;;6.50;3.57;;;;;;;;;;5082512;28;20052;-69
2023/06/26 13:26:44;;;;;;;7.77;4.00;;;;;;;;;;5067668;28;21193;-69
2023/06/26 13:29:10;;;;;;;8.17;3.70;;;;;;;;;;5078097;28;20023;-68
2023/06/26 13:31:35;;;;;;;5.77;3.80;;;;;;;;;;5061805;28;20089;-70
2023/06/26 13:34:03;;;;;;;6.68;4.15;;;;;;;;;;5073526;28;20033;-69
2023/06/26 13:36:28;;;;;;;6.38;3.83;;;;;;;;;;5082864;28;20015;-69
2023/06/26 13:38:56;;;;;;;5.77;3.70;;;;;;;;;;5063379;28;20024;-69
2023/06/26 13:41:27;;;;;;;6.13;3.58;;;;;;;;;;5063089;28;20130;-69
2023/06/26 13:43:53;;;;;;;6.28;3.88;;;;;;;;;;5082396;28;20531;-67
2023/06/26 13:46:18;;;;;;;8.77;3.90;;;;;;;;;;5077734;28;20027;-67
2023/06/26 13:48:44;;;;;;;6.50;4.03;;;;;;;;;;5068775;27;20265;-67
2023/06/26 13:51:09;;;;;;;8.00;3.97;;;;;;;;;;5068825;28;20016;-67
2023/06/26 13:53:34;;;;;;;7.17;3.87;;;;;;;;;;5082954;28;20024;-67
2023/06/26 13:55:59;;;;;;;6.50;3.87;;;;;;;;;;5068909;28;20031;-67
2023/06/26 13:58:26;;;;;;;8.93;4.30;;;;;;;;;;5066908;28;20019;-67
2023/06/26 14:00:54;;;;;;;6.22;3.70;;;;;;;;;;5071428;28;20024;-67
2023/06/26 14:03:20;;;;;;;10.32;4.07;;;;;;;;;;5062552;28;20015;-68
2023/06/26 14:05:45;;;;;;;6.43;3.63;;;;;;;;;;5082131;28;20035;-67
2023/06/26 14:08:10;;;;;;;7.60;3.63;;;;;;;;;;5076455;28;20035;-67
2023/06/26 14:10:36;;;;;;;6.10;3.58;;;;;;;;;;5081214;28;20438;-67
2023/06/26 14:13:03;;;;;;;7.40;3.67;;;;;;;;;;5077776;27;20020;-67
2023/06/26 14:15:33;;;;;;;6.40;3.70;;;;;;;;;;5060462;28;20080;-69
2023/06/26 14:17:59;;;;;;;6.90;4.00;;;;;;;;;;5058146;28;20027;-69
2023/06/26 14:20:24;;;;;;;8.38;3.70;;;;;;;;;;5050886;28;20476;-66
2023/06/26 14:22:49;;;;;;;7.15;4.00;;;;;;;;;;5057482;28;20023;-67
2023/06/26 14:25:16;;;;;;;6.43;3.93;;;;;;;;;;5058183;28;20032;-68
2023/06/26 14:27:43;;;;;;;6.93;4.15;;;;;;;;;;5053788;28;20373;-68
2023/06/26 14:30:11;;;;;;;7.65;3.58;;;;;;;;;;5051368;28;20546;-69
2023/06/26 14:32:37;;;;;;;9.43;4.13;;;;;;;;;;5044812;28;20024;-69
2023/06/26 14:35:05;;;;;;;7.60;4.03;;;;;;;;;;5058559;28;20653;-68
2023/06/26 14:37:32;;;;;;;7.23;4.27;;;;;;;;;;5061331;28;20063;-69
2023/06/26 14:39:58;;;;;;;6.93;4.03;;;;;;;;;;5041740;28;20021;-66
2023/06/26 14:42:27;;;;;;;5.65;3.97;;;;;;;;;;5058453;28;20898;-69